Time;durP1;ratioP1;P1;durP2;ratioP2;P2;SDS_P1;SDS_P2;PMS_P1;PMS_P2;Temp;Humidity;BMP_temperature;BMP_pressure;BME280_temperature;BME280_humidity;BME280_pressure;Samples;Min_cycle;Max_cycle;Signal;HPM_P1;HPM_P2
2021/12/19 00:08:27;;;;;;;9.40;3.33;;;;;;;2.76;75.40;101509.97;1899982;75;21470;-60
2021/12/19 00:09:58;;;;;;;7.08;2.85;;;;;;;2.65;75.72;101522.47;1872209;75;21567;-66
2021/12/19 00:12:27;;;;;;;7.45;3.27;;;;;;;2.67;75.68;101518.17;1878512;75;21572;-71
2021/12/19 00:14:55;;;;;;;5.15;2.77;;;;;;;2.72;75.58;101510.83;1879751;76;21510;-65
2021/12/19 00:17:24;;;;;;;6.12;3.20;;;;;;;2.71;75.52;101506.03;1900247;75;21167;-71
2021/12/19 00:19:53;;;;;;;6.95;3.15;;;;;;;2.71;75.50;101511.23;1883916;75;21092;-64
2021/12/19 00:22:22;;;;;;;6.90;2.70;;;;;;;2.64;75.66;101505.14;1880099;75;21012;-66
2021/12/19 00:24:50;;;;;;;8.43;3.25;;;;;;;2.65;75.59;101508.16;1872876;76;21536;-63
2021/12/19 00:27:19;;;;;;;11.18;4.08;;;;;;;2.65;75.54;101499.51;1874170;75;21043;-67
2021/12/19 00:29:48;;;;;;;8.60;3.98;;;;;;;2.67;75.46;101499.97;1915859;75;21108;-67
2021/12/19 00:32:17;;;;;;;9.30;4.20;;;;;;;2.67;75.44;101497.38;1904584;75;21035;-65
2021/12/19 00:34:45;;;;;;;7.42;3.47;;;;;;;2.67;75.43;101496.08;1890326;75;21139;-69
2021/12/19 00:37:14;;;;;;;8.10;4.00;;;;;;;2.65;75.51;101493.87;1871571;76;21156;-70
2021/12/19 00:39:43;;;;;;;6.65;3.85;;;;;;;2.68;75.47;101491.30;1879701;76;21580;-70
2021/12/19 00:42:14;;;;;;;7.72;3.45;;;;;;;2.71;75.48;101491.73;1894306;75;21489;-71
2021/12/19 00:44:44;;;;;;;8.28;3.50;;;;;;;2.73;75.47;101490.44;1893224;75;21141;-71
2021/12/19 00:47:13;;;;;;;12.63;4.28;;;;;;;2.75;75.48;101497.81;1874983;76;21161;-73
2021/12/19 00:49:42;;;;;;;6.83;3.35;;;;;;;2.75;75.66;101500.42;1875206;75;21080;-70
2021/12/19 00:52:11;;;;;;;6.35;2.87;;;;;;;2.74;75.83;101498.70;1920240;73;21058;-67
2021/12/19 00:54:39;;;;;;;9.80;4.08;;;;;;;2.76;75.83;101496.53;1919254;75;21050;-70
2021/12/19 00:57:08;;;;;;;10.85;3.75;;;;;;;2.79;75.77;101495.70;1904775;75;21113;-71
2021/12/19 00:59:38;;;;;;;8.68;3.83;;;;;;;2.79;75.75;101501.77;1913530;75;21046;-73
2021/12/19 01:02:07;;;;;;;8.65;3.50;;;;;;;2.80;75.77;101496.12;1920768;74;21472;-73
2021/12/19 01:04:35;;;;;;;10.23;4.75;;;;;;;2.78;75.87;101488.30;1928377;74;21077;-74
2021/12/19 01:07:04;;;;;;;6.37;3.17;;;;;;;2.79;75.87;101493.95;1914416;74;21054;-68
2021/12/19 01:09:33;;;;;;;9.50;3.98;;;;;;;2.81;75.85;101493.53;1928444;74;21526;-69
2021/12/19 01:12:03;;;;;;;9.00;4.15;;;;;;;2.82;75.81;101486.18;1922433;74;21128;-71
2021/12/19 01:14:31;;;;;;;8.70;3.95;;;;;;;2.82;75.89;101482.28;1886936;74;21040;-71
2021/12/19 01:17:00;;;;;;;9.00;3.55;;;;;;;2.81;75.96;101484.87;1865182;76;21043;-68
2021/12/19 01:19:29;;;;;;;8.33;3.98;;;;;;;2.81;75.93;101475.77;1902655;74;21042;-67
2021/12/19 01:21:58;;;;;;;15.45;4.10;;;;;;;2.79;75.87;101473.59;1922805;74;21175;-67
2021/12/19 01:24:26;;;;;;;12.65;4.42;;;;;;;2.77;75.81;101480.08;1919013;75;21051;-65
2021/12/19 01:26:56;;;;;;;8.63;3.67;;;;;;;2.72;75.80;101470.52;1904141;75;21049;-66
2021/12/19 01:29:24;;;;;;;10.72;4.08;;;;;;;2.62;75.81;101470.47;1900549;74;21124;-65
2021/12/19 01:31:53;;;;;;;10.03;4.53;;;;;;;2.52;75.84;101468.66;1923077;74;21038;-67
2021/12/19 01:34:22;;;;;;;12.95;3.70;;;;;;;2.45;75.91;101466.88;1919211;74;21035;-61
2021/12/19 01:36:51;;;;;;;17.90;8.30;;;;;;;2.42;75.98;101465.59;1885611;74;21123;-63
2021/12/19 01:39:20;;;;;;;14.30;6.75;;;;;;;2.41;76.02;101459.94;1885770;76;21082;-64
2021/12/19 01:41:51;;;;;;;8.50;4.33;;;;;;;2.37;76.09;101459.05;1903635;75;21108;-62
2021/12/19 01:44:21;;;;;;;8.95;4.08;;;;;;;2.35;76.04;101459.91;1919127;75;21022;-63
2021/12/19 01:46:50;;;;;;;9.45;4.20;;;;;;;2.33;76.06;101451.23;1914402;74;21242;-66
2021/12/19 01:49:20;;;;;;;6.60;3.20;;;;;;;2.31;76.06;101449.48;1894792;74;21117;-61
2021/12/19 01:51:49;;;;;;;7.40;3.37;;;;;;;2.28;76.21;101449.89;1883665;74;21029;-70
2021/12/19 01:54:18;;;;;;;7.40;3.37;;;;;;;2.25;76.35;101455.05;1882222;76;21017;-67
2021/12/19 01:56:47;;;;;;;7.92;3.62;;;;;;;2.26;76.36;101455.52;1882126;76;21042;-66
2021/12/19 01:59:16;;;;;;;8.68;2.85;;;;;;;2.28;76.20;101457.25;1841262;76;21175;-65
2021/12/19 02:01:48;;;;;;;12.82;4.08;;;;;;;2.32;76.26;101450.34;1853745;76;21005;-67
2021/12/19 02:04:19;;;;;;;6.67;2.77;;;;;;;2.39;76.24;101456.46;1882018;76;21120;-67
2021/12/19 02:06:48;;;;;;;8.03;3.50;;;;;;;2.41;76.18;101457.34;1882154;76;21024;-68
2021/12/19 02:09:18;;;;;;;7.45;3.30;;;;;;;2.44;76.08;101454.77;1882131;76;21611;-67
2021/12/19 02:11:47;;;;;;;8.05;3.45;;;;;;;2.45;76.04;101452.59;1881836;75;21248;-66
2021/12/19 02:14:16;;;;;;;8.40;3.85;;;;;;;2.46;76.01;101459.54;1885448;75;21102;-69
2021/12/19 02:16:44;;;;;;;7.42;3.75;;;;;;;2.42;75.88;101460.39;1894771;75;21039;-65
2021/12/19 02:19:14;;;;;;;12.18;3.58;;;;;;;2.36;75.75;101460.33;1906259;75;21031;-68
2021/12/19 02:21:43;;;;;;;6.95;3.25;;;;;;;2.29;75.63;101465.50;1899807;75;21474;-65
2021/12/19 02:24:13;;;;;;;8.18;3.83;;;;;;;2.23;75.67;101464.17;1882067;76;21470;-66
2021/12/19 02:26:43;;;;;;;4.65;2.40;;;;;;;2.20;75.82;101469.77;1882060;76;21491;-67
2021/12/19 02:29:13;;;;;;;11.12;4.42;;;;;;;2.18;75.95;101464.56;1882169;76;21168;-66
2021/12/19 02:31:42;;;;;;;10.68;4.40;;;;;;;2.16;75.99;101462.38;1883393;76;21478;-64
2021/12/19 02:34:19;;;;;;;14.45;3.90;;;;;;;2.16;76.04;101468.88;1893509;75;21058;-62
2021/12/19 02:50:33;;;;;;;10.50;3.80;;;;;;;1.86;76.10;101465.59;1882102;76;21050;-65
2021/12/19 02:53:01;;;;;;;13.20;5.00;;;;;;;1.75;76.27;101469.39;1849592;76;21171;-65
2021/12/19 02:55:32;;;;;;;7.22;3.42;;;;;;;1.72;76.45;101473.28;1849804;77;21165;-65
2021/12/19 02:58:01;;;;;;;8.75;4.72;;;;;;;1.73;76.46;101463.31;1903469;74;21160;-65
2021/12/19 03:00:30;;;;;;;11.70;5.12;;;;;;;1.70;76.52;101449.89;1885319;76;21540;-64
2021/12/19 03:02:59;;;;;;;9.80;3.58;;;;;;;1.70;76.58;101450.33;1885470;76;21484;-64
2021/12/19 03:05:32;;;;;;;9.25;3.90;;;;;;;1.72;76.58;101453.80;1885477;76;21563;-62
2021/12/19 03:08:00;;;;;;;4.83;2.40;;;;;;;1.74;76.47;101460.73;1885406;76;21059;-61
2021/12/19 03:18:38;;;;;;;7.83;3.42;;;;;;;1.80;76.37;101484.59;1885515;76;21117;-64
2021/12/19 03:21:16;;;;;;;5.42;2.55;;;;;;;1.78;76.33;101476.35;1885430;76;21203;-68
2021/12/19 03:23:39;;;;;;;8.80;3.83;;;;;;;1.82;76.35;101476.38;1884526;76;21210;-67
2021/12/19 03:26:08;;;;;;;11.60;3.72;;;;;;;1.84;76.37;101476.40;1885524;76;21070;-67
2021/12/19 03:28:37;;;;;;;9.25;2.95;;;;;;;1.85;76.37;101481.61;1885512;76;21633;-62
2021/12/19 03:31:06;;;;;;;5.33;2.17;;;;;;;1.88;76.33;101476.45;1885498;76;21082;-63
2021/12/19 03:33:38;;;;;;;8.33;3.20;;;;;;;1.90;76.27;101466.95;1885476;76;21504;-66
2021/12/19 03:36:08;;;;;;;9.20;4.35;;;;;;;1.95;76.26;101470.00;1885434;76;21098;-63
2021/12/19 03:38:41;;;;;;;9.60;4.83;;;;;;;1.96;76.24;101471.75;1885576;76;21054;-70
2021/12/19 03:43:42;;;;;;;7.28;3.62;;;;;;;1.99;76.20;101473.05;1885476;76;21054;-67
2021/12/19 03:46:10;;;;;;;6.90;3.33;;;;;;;1.99;76.17;101476.95;1885446;76;21442;-66
2021/12/19 03:48:39;;;;;;;7.50;3.77;;;;;;;1.98;76.15;101476.09;1885470;76;21144;-66
2021/12/19 03:51:08;;;;;;;6.87;2.98;;;;;;;1.96;76.11;101473.05;1885426;76;21139;-66
2021/12/19 03:53:37;;;;;;;7.78;2.52;;;;;;;1.91;76.17;101475.16;1895743;75;21575;-73
2021/12/19 03:56:06;;;;;;;10.28;3.55;;;;;;;1.88;76.22;101472.96;1901304;75;21900;-74
2021/12/19 03:58:35;;;;;;;9.78;2.92;;;;;;;1.87;76.17;101470.80;1901269;75;21504;-61
2021/12/19 04:01:07;;;;;;;7.47;3.70;;;;;;;1.85;76.22;101468.63;1901093;75;21077;-62
2021/12/19 04:03:36;;;;;;;7.15;3.22;;;;;;;1.87;76.17;101472.10;1901240;75;21073;-63
2021/12/19 04:06:05;;;;;;;6.97;3.40;;;;;;;1.86;76.09;101465.59;1901277;75;21022;-63
2021/12/19 04:08:34;;;;;;;10.18;4.25;;;;;;;1.69;76.24;101466.31;1901384;74;21576;-63
2021/12/19 04:11:03;;;;;;;9.38;3.40;;;;;;;1.62;76.29;101458.02;1901334;75;21019;-65
2021/12/19 04:13:32;;;;;;;9.38;3.50;;;;;;;1.58;76.36;101466.64;1917018;74;21088;-61
2021/12/19 04:16:01;;;;;;;10.95;4.25;;;;;;;1.61;76.31;101463.22;1938354;74;21542;-63
2021/12/19 04:18:29;;;;;;;5.92;2.50;;;;;;;1.61;76.32;101460.63;1938458;74;21053;-64
2021/12/19 04:20:58;;;;;;;12.45;2.85;;;;;;;1.63;76.29;101460.21;1938442;74;21042;-66
2021/12/19 04:23:30;;;;;;;7.17;2.80;;;;;;;1.66;76.25;101460.22;1938492;74;21369;-64
2021/12/19 04:25:57;;;;;;;8.70;3.52;;;;;;;1.68;76.25;101465.89;1938285;74;21175;-65
2021/12/19 04:28:26;;;;;;;6.42;2.62;;;;;;;1.74;76.25;101466.37;1863028;77;21496;-65
2021/12/19 04:30:55;;;;;;;6.15;2.35;;;;;;;1.76;76.27;101460.75;1895098;76;21485;-65
2021/12/19 04:33:25;;;;;;;5.67;2.72;;;;;;;1.81;76.24;101461.67;1863149;77;21563;-67
2021/12/19 04:36:00;;;;;;;6.30;2.33;;;;;;;1.82;76.30;101459.94;1894773;76;21147;-66
2021/12/19 04:55:24;;;;;;;9.58;4.55;;;;;;;1.63;76.04;101460.21;1873233;76;21102;-65
2021/12/19 04:57:53;;;;;;;14.23;4.80;;;;;;;1.53;76.23;101461.42;1871073;76;21079;-63
2021/12/19 05:00:18;;;;;;;9.55;4.30;;;;;;;1.47;76.42;101460.05;1870680;76;21079;-64
2021/12/19 05:16:15;;;;;;;7.80;2.83;;;;;;;1.33;77.08;101443.48;1871834;76;21051;-60
2021/12/19 05:18:46;;;;;;;10.45;2.90;;;;;;;1.33;77.14;101448.67;1866572;77;21043;-60
2021/12/19 05:21:18;;;;;;;10.30;3.25;;;;;;;1.38;77.04;101441.78;1866405;77;21055;-61
2021/12/19 05:26:15;;;;;;;4.60;2.55;;;;;;;1.52;76.92;101449.28;1865933;77;21019;-62
2021/12/19 05:28:44;;;;;;;5.80;2.90;;;;;;;1.59;76.88;101446.33;1860616;77;21522;-63
2021/12/19 05:31:13;;;;;;;4.55;1.77;;;;;;;1.65;76.76;101442.48;1860546;77;21478;-62
2021/12/19 05:33:42;;;;;;;12.93;3.72;;;;;;;1.75;76.66;101438.23;1860612;77;21075;-62
2021/12/19 05:45:12;;;;;;;10.00;4.53;;;;;;;4.51;73.23;101420.78;1860571;77;21619;-61
2021/12/19 05:46:44;;;;;;;11.08;4.90;;;;;;;5.27;71.47;101409.55;1861709;77;21043;-62
2021/12/19 05:49:13;;;;;;;5.85;3.50;;;;;;;5.69;70.34;101400.97;1860537;77;21071;-64
2021/12/19 05:51:42;;;;;;;11.88;5.35;;;;;;;5.72;69.69;101410.96;1860542;77;21130;-63
2021/12/19 05:54:11;;;;;;;5.90;4.20;;;;;;;5.56;70.06;101413.27;1859226;76;21047;-62
2021/12/19 05:56:40;;;;;;;8.80;4.33;;;;;;;5.92;68.94;101399.03;1855199;77;21052;-63
2021/12/19 05:59:10;;;;;;;7.60;2.72;;;;;;;6.39;68.51;101390.30;1855174;77;21541;-62
2021/12/19 06:01:40;;;;;;;8.53;3.45;;;;;;;7.11;68.03;101389.37;1855241;77;21494;-62
2021/12/19 06:04:08;;;;;;;10.58;5.80;;;;;;;7.76;67.45;101392.75;1855249;77;21593;-62
2021/12/19 06:06:38;;;;;;;14.75;6.87;;;;;;;8.40;66.84;101391.57;1855232;77;21040;-61
2021/12/19 06:09:06;;;;;;;9.83;5.20;;;;;;;8.97;66.14;101388.27;1855863;77;21521;-63
2021/12/19 06:11:35;;;;;;;10.35;5.65;;;;;;;9.43;65.41;101384.58;1855347;77;21518;-62
2021/12/19 06:14:04;;;;;;;9.03;5.40;;;;;;;9.89;64.50;101385.20;1855535;77;21494;-62
2021/12/19 06:16:33;;;;;;;12.53;5.70;;;;;;;10.15;63.28;101388.46;1872884;76;21594;-63
2021/12/19 06:19:02;;;;;;;8.95;4.90;;;;;;;10.57;62.71;101393.02;1873377;76;21128;-62
2021/12/19 06:21:30;;;;;;;8.18;4.97;;;;;;;10.96;61.43;101398.48;1869270;76;21046;-62
2021/12/19 06:23:59;;;;;;;7.35;5.33;;;;;;;11.26;60.64;101397.98;1855177;77;21064;-62
2021/12/19 06:26:28;;;;;;;7.30;4.78;;;;;;;11.59;59.72;101397.35;1855327;77;21364;-62
2021/12/19 06:28:56;;;;;;;3.83;2.52;;;;;;;12.04;59.34;101394.56;1855314;77;21101;-61
2021/12/19 06:31:25;;;;;;;6.53;3.67;;;;;;;12.41;58.71;101388.44;1855218;77;21145;-62
2021/12/19 06:33:54;;;;;;;6.37;3.70;;;;;;;12.45;56.20;101387.41;1855239;77;21137;-61
2021/12/19 06:36:22;;;;;;;6.25;3.80;;;;;;;12.39;55.26;101386.31;1855329;77;21060;-62
2021/12/19 06:38:52;;;;;;;8.30;4.97;;;;;;;12.46;54.15;101390.46;1855834;77;21130;-61
2021/12/19 06:41:21;;;;;;;8.05;3.30;;;;;;;12.75;54.20;101380.98;1860398;76;21035;-62
2021/12/19 06:43:50;;;;;;;9.88;3.87;;;;;;;13.16;53.84;101373.70;1855200;77;21032;-61
2021/12/19 06:46:19;;;;;;;5.50;2.72;;;;;;;13.43;52.79;101382.34;1855229;77;21209;-61
2021/12/19 06:48:48;;;;;;;6.37;2.70;;;;;;;13.52;51.63;101382.44;1855203;77;21184;-62
2021/12/19 06:51:16;;;;;;;4.90;2.87;;;;;;;13.53;50.99;101381.97;1855556;77;21059;-61
2021/12/19 06:53:45;;;;;;;10.18;3.80;;;;;;;13.48;49.62;101386.11;1855684;77;21003;-64
2021/12/19 06:56:14;;;;;;;5.03;2.65;;;;;;;13.45;48.95;101377.84;1859729;76;21158;-61
2021/12/19 06:58:43;;;;;;;8.00;3.05;;;;;;;13.40;47.83;101372.34;1860664;77;21113;-63
2021/12/19 07:01:12;;;;;;;2.95;1.82;;;;;;;13.71;47.94;101368.83;1860682;77;21454;-63
2021/12/19 07:03:41;;;;;;;6.15;2.83;;;;;;;14.10;47.38;101361.41;1860762;77;21557;-62
2021/12/19 07:06:10;;;;;;;4.17;2.27;;;;;;;14.47;47.13;101362.89;1860753;77;21165;-61
2021/12/19 07:08:39;;;;;;;5.47;3.12;;;;;;;14.66;45.95;101352.33;1864553;77;21063;-63
2021/12/19 07:11:08;;;;;;;9.20;4.33;;;;;;;14.94;46.00;101353.23;1866272;77;21039;-61
2021/12/19 07:13:37;;;;;;;5.95;2.72;;;;;;;15.26;45.79;101357.45;1863570;77;21028;-62
2021/12/19 07:16:07;;;;;;;3.98;2.15;;;;;;;15.66;45.52;101354.16;1860565;77;21510;-60
2021/12/19 07:18:39;;;;;;;7.75;2.37;;;;;;;15.97;44.82;101356.58;1860740;77;21142;-60
2021/12/19 07:21:08;;;;;;;7.15;2.90;;;;;;;16.31;44.30;101357.48;1860416;77;21134;-61
2021/12/19 07:23:37;;;;;;;4.60;2.27;;;;;;;16.66;42.75;101350.73;1860588;77;21443;-61
2021/12/19 07:26:06;;;;;;;6.47;2.87;;;;;;;16.73;42.11;101348.13;1860572;77;21470;-60
2021/12/19 07:28:35;;;;;;;4.83;2.10;;;;;;;16.63;41.59;101346.91;1860567;77;21470;-61
2021/12/19 07:31:04;;;;;;;11.30;2.65;;;;;;;16.63;41.02;101345.57;1860818;77;21055;-61
2021/12/19 07:33:33;;;;;;;9.90;2.87;;;;;;;16.67;39.68;101339.98;1860493;77;21043;-61
2021/12/19 07:36:02;;;;;;;6.25;2.87;;;;;;;16.48;39.61;101336.16;1860556;77;21493;-61
2021/12/19 07:38:37;;;;;;;7.85;2.52;;;;;;;16.89;39.72;101338.35;1862568;77;21536;-60
2021/12/19 07:41:02;;;;;;;5.83;2.40;;;;;;;17.14;39.19;101334.33;1866442;76;21138;-60
2021/12/19 07:43:31;;;;;;;4.47;2.27;;;;;;;16.87;37.67;101324.28;1866433;77;21039;-61
2021/12/19 07:46:00;;;;;;;6.22;2.33;;;;;;;17.12;37.92;101318.92;1866348;77;21086;-61
2021/12/19 07:48:29;;;;;;;3.95;1.80;;;;;;;17.80;37.79;101314.94;1866345;77;21085;-61
2021/12/19 07:50:58;;;;;;;4.17;1.67;;;;;;;18.39;37.18;101307.78;1866328;77;21051;-61
2021/12/19 07:53:27;;;;;;;5.45;2.05;;;;;;;18.86;36.63;101310.57;1862904;77;21094;-61
2021/12/19 07:55:55;;;;;;;4.47;1.80;;;;;;;18.85;35.56;101312.88;1860426;75;21083;-61
2021/12/19 07:58:24;;;;;;;5.95;1.72;;;;;;;18.85;34.97;101308.88;1860459;77;21545;-61
2021/12/19 08:00:53;;;;;;;9.05;3.10;;;;;;;18.64;34.79;101307.55;1860503;77;21059;-61
2021/12/19 08:03:22;;;;;;;4.50;2.20;;;;;;;18.25;34.36;101302.45;1860800;77;21447;-61
2021/12/19 08:05:51;;;;;;;3.17;1.60;;;;;;;17.71;35.44;101297.24;1860546;77;21068;-62
2021/12/19 08:08:26;;;;;;;2.98;1.62;;;;;;;18.05;34.17;101296.53;1860578;77;21091;-61
2021/12/19 08:13:21;;;;;;;3.50;1.87;;;;;;;18.22;33.83;101298.64;1860563;77;21043;-60
2021/12/19 08:15:49;;;;;;;3.00;1.70;;;;;;;18.57;33.94;101298.23;1860558;77;21393;-64
2021/12/19 08:18:18;;;;;;;4.08;2.20;;;;;;;18.46;33.10;101290.91;1860514;77;21090;-61
2021/12/19 08:20:47;;;;;;;6.10;2.40;;;;;;;18.12;32.43;101291.70;1860533;77;21056;-61
2021/12/19 08:23:16;;;;;;;5.28;1.50;;;;;;;17.70;31.98;101284.86;1860566;77;21655;-61
2021/12/19 08:25:45;;;;;;;4.65;1.80;;;;;;;17.45;31.98;101289.97;1860554;77;21425;-61
2021/12/19 08:28:14;;;;;;;5.90;1.85;;;;;;;17.77;32.66;101287.17;1860526;77;21139;-60
2021/12/19 08:30:43;;;;;;;2.50;1.35;;;;;;;17.70;31.54;101286.19;1860524;77;21075;-61
2021/12/19 08:33:12;;;;;;;9.20;2.45;;;;;;;17.82;32.40;101278.44;1860667;77;21059;-59
2021/12/19 08:35:41;;;;;;;6.40;1.90;;;;;;;18.66;31.60;101285.63;1860666;77;21126;-61
2021/12/19 08:38:09;;;;;;;4.20;1.60;;;;;;;18.68;30.87;101271.72;1860464;77;21137;-60
2021/12/19 08:40:38;;;;;;;4.28;1.25;;;;;;;19.23;30.98;101266.77;1860628;77;21165;-63
2021/12/19 08:43:07;;;;;;;6.05;1.72;;;;;;;19.55;30.65;101251.73;1860615;77;21047;-62
2021/12/19 08:45:36;;;;;;;2.67;1.52;;;;;;;19.57;30.62;101256.48;1860636;77;21044;-63
2021/12/19 08:48:06;;;;;;;2.40;1.37;;;;;;;19.99;29.61;101260.30;1860606;77;21056;-64
2021/12/19 08:50:35;;;;;;;1.77;1.10;;;;;;;19.80;28.15;101263.41;1860592;77;21031;-61
2021/12/19 08:53:04;;;;;;;3.10;1.02;;;;;;;18.97;28.55;101263.66;1860621;77;21060;-61
2021/12/19 08:55:33;;;;;;;1.50;0.82;;;;;;;19.41;29.53;101249.15;1860615;77;21113;-61
2021/12/19 08:58:02;;;;;;;4.33;1.00;;;;;;;19.91;29.50;101240.80;1871348;76;21165;-61
2021/12/19 09:00:31;;;;;;;2.30;1.35;;;;;;;19.73;29.00;101232.73;1855973;77;21126;-59
2021/12/19 09:02:59;;;;;;;3.33;1.98;;;;;;;20.12;27.64;101216.17;1855174;77;21044;-60
2021/12/19 09:05:30;;;;;;;1.32;0.75;;;;;;;19.08;27.60;101213.09;1855300;77;21048;-61
2021/12/19 09:07:59;;;;;;;2.02;1.00;;;;;;;16.02;29.96;101220.41;1855359;77;21016;-59
2021/12/19 09:10:28;;;;;;;1.27;0.90;;;;;;;14.89;32.23;101223.15;1855264;77;21576;-58
2021/12/19 09:12:57;;;;;;;1.98;1.00;;;;;;;16.14;31.59;101213.11;1855283;77;21490;-63
2021/12/19 09:15:26;;;;;;;1.50;0.90;;;;;;;17.00;30.92;101207.88;1855388;77;21028;-63
2021/12/19 09:17:55;;;;;;;0.65;0.62;;;;;;;17.91;29.11;101200.64;1855260;77;21168;-60
2021/12/19 09:20:24;;;;;;;2.35;0.90;;;;;;;18.27;29.34;101195.26;1855416;77;21084;-62
2021/12/19 09:22:53;;;;;;;1.47;0.90;;;;;;;18.42;29.17;101196.92;1855239;77;21060;-61
2021/12/19 09:25:22;;;;;;;1.05;0.80;;;;;;;19.42;28.80;101191.64;1857985;77;21067;-60
2021/12/19 09:27:51;;;;;;;1.15;0.93;;;;;;;19.90;27.86;101180.77;1835152;78;21155;-60
2021/12/19 09:30:20;;;;;;;1.92;1.10;;;;;;;20.32;27.71;101174.14;1860905;77;21208;-60
2021/12/19 09:32:49;;;;;;;1.40;0.93;;;;;;;20.86;27.30;101163.97;1860957;77;21043;-59
2021/12/19 09:35:18;;;;;;;1.95;1.00;;;;;;;20.97;27.11;101166.22;1860577;77;21121;-60
2021/12/19 09:37:47;;;;;;;1.72;1.10;;;;;;;21.60;26.92;101155.16;1861038;77;21071;-61
2021/12/19 09:40:22;;;;;;;1.95;1.35;;;;;;;20.67;25.29;101141.27;1860989;77;21020;-60
2021/12/19 09:43:00;;;;;;;1.45;0.90;;;;;;;19.90;26.87;101146.91;1860918;77;21146;-62
2021/12/19 09:45:23;;;;;;;1.65;1.25;;;;;;;18.74;28.88;101153.09;1860319;77;21071;-60
2021/12/19 09:47:52;;;;;;;2.17;1.17;;;;;;;18.21;29.98;101150.34;1855709;77;21047;-61
2021/12/19 09:50:21;;;;;;;1.85;1.10;;;;;;;18.95;29.48;101144.17;1855195;77;21541;-59
2021/12/19 09:52:50;;;;;;;1.45;0.93;;;;;;;17.96;30.36;101136.41;1856361;77;21134;-61
2021/12/19 09:55:21;;;;;;;3.40;1.00;;;;;;;16.43;32.03;101141.52;1855170;77;21117;-62
2021/12/19 09:57:53;;;;;;;1.72;1.10;;;;;;;16.00;32.67;101138.63;1855230;75;21067;-61
2021/12/19 10:00:22;;;;;;;2.30;0.88;;;;;;;15.46;33.15;101138.02;1860536;77;21184;-62
2021/12/19 10:02:51;;;;;;;1.45;0.93;;;;;;;14.91;33.88;101129.33;1860847;77;21642;-60
2021/12/19 10:05:23;;;;;;;1.85;0.90;;;;;;;13.80;33.97;101129.38;1831323;78;21051;-60
2021/12/19 10:08:01;;;;;;;2.98;1.10;;;;;;;12.85;35.78;101128.25;1866752;76;21087;-63
2021/12/19 10:10:47;;;;;;;2.85;1.10;;;;;;;12.02;37.29;101118.41;1866599;77;21039;-63
2021/12/19 10:13:15;;;;;;;4.25;1.50;;;;;;;11.61;38.37;101120.83;1866667;77;21056;-62
2021/12/19 10:15:45;;;;;;;3.33;1.02;;;;;;;11.11;39.25;101114.69;1866599;77;21563;-63
2021/12/19 10:18:17;;;;;;;1.65;0.75;;;;;;;10.78;39.87;101110.98;1866415;76;21662;-62
2021/12/19 10:20:57;;;;;;;2.33;1.10;;;;;;;10.39;40.13;101109.23;1866553;77;21035;-63
2021/12/19 10:23:28;;;;;;;2.00;0.88;;;;;;;10.18;40.94;101102.83;1866624;77;21039;-62
2021/12/19 10:26:03;;;;;;;2.25;1.10;;;;;;;10.15;41.11;101095.05;1847827;76;21122;-62
2021/12/19 10:28:33;;;;;;;1.22;0.90;;;;;;;10.78;40.39;101097.81;1866245;77;21092;-62
2021/12/19 10:31:03;;;;;;;1.55;0.50;;;;;;;10.62;39.83;101084.76;1866464;77;21537;-61
2021/12/19 10:33:33;;;;;;;1.12;0.62;;;;;;;10.36;40.58;101081.21;1830771;78;21050;-61
2021/12/19 10:36:09;;;;;;;2.60;1.02;;;;;;;10.21;40.59;101065.90;1863683;77;21035;-63
2021/12/19 10:38:40;;;;;;;2.10;1.25;;;;;;;10.29;40.55;101070.48;1860616;77;21024;-62
2021/12/19 10:41:11;;;;;;;1.42;0.98;;;;;;;11.11;39.43;101058.03;1860514;77;21149;-62
2021/12/19 10:43:58;;;;;;;2.85;1.20;;;;;;;13.04;36.52;101049.02;1860552;77;21110;-62
2021/12/19 10:46:34;;;;;;;0.82;0.50;;;;;;;14.27;35.03;101048.14;1861231;77;21051;-62
2021/12/19 10:49:03;;;;;;;1.22;0.60;;;;;;;15.34;33.26;101033.37;1860551;77;21048;-62
2021/12/19 10:51:35;;;;;;;0.85;0.80;;;;;;;15.96;32.21;101026.88;1860500;77;21122;-61
2021/12/19 10:54:07;;;;;;;0.72;0.72;;;;;;;16.44;31.06;100997.55;1858452;77;21114;-63
2021/12/19 10:56:38;;;;;;;5.65;0.80;;;;;;;16.81;30.72;101007.30;1860894;77;21011;-63
2021/12/19 10:59:09;;;;;;;1.57;0.80;;;;;;;17.17;29.67;101002.39;1866694;75;21132;-64
2021/12/19 11:01:52;;;;;;;1.37;0.80;;;;;;;17.59;29.86;100990.43;1884628;76;21116;-63
2021/12/19 11:04:23;;;;;;;1.85;0.65;;;;;;;17.38;28.60;100998.48;1884723;76;21066;-62
2021/12/19 11:06:54;;;;;;;4.85;1.67;;;;;;;17.06;29.75;101000.00;1884092;76;21105;-64
2021/12/19 11:09:28;;;;;;;2.15;0.88;;;;;;;17.31;28.87;100996.19;1884768;75;21039;-64
2021/12/19 11:12:05;;;;;;;0.70;0.57;;;;;;;16.91;29.14;100992.05;1884546;76;21519;-62
2021/12/19 11:14:47;;;;;;;2.77;0.80;;;;;;;16.31;30.08;100992.11;1884607;75;21567;-61
2021/12/19 11:17:22;;;;;;;4.67;1.07;;;;;;;14.00;32.69;100989.89;1885507;76;21026;-62
2021/12/19 11:19:52;;;;;;;2.12;0.90;;;;;;;12.29;35.32;100989.73;1909986;71;21046;-60
2021/12/19 11:22:24;;;;;;;1.57;0.70;;;;;;;11.14;37.69;100985.45;1915596;75;21116;-60
2021/12/19 11:24:55;;;;;;;1.90;0.93;;;;;;;10.57;39.05;100976.12;1915563;74;21220;-60
2021/12/19 11:27:25;;;;;;;3.45;1.07;;;;;;;9.89;39.93;100965.20;1915276;74;21085;-60
2021/12/19 11:29:55;;;;;;;1.52;0.90;;;;;;;9.39;40.87;100961.95;1915956;75;21018;-60
2021/12/19 11:32:27;;;;;;;2.05;0.85;;;;;;;9.05;41.71;100975.22;1917183;74;20998;-61
2021/12/19 11:35:11;;;;;;;6.22;1.77;;;;;;;8.72;42.53;100972.63;1916671;73;21558;-60
2021/12/19 11:37:43;;;;;;;2.50;1.00;;;;;;;8.55;43.20;100961.75;1917126;73;21545;-62
2021/12/19 11:40:17;;;;;;;0.60;0.60;;;;;;;8.26;43.69;100957.66;1882750;76;21038;-61
2021/12/19 11:42:46;;;;;;;9.23;1.92;;;;;;;8.28;43.96;100956.28;1917157;75;21022;-60
2021/12/19 11:45:30;;;;;;;8.33;2.70;;;;;;;8.22;44.33;100954.68;1916955;75;21033;-60
2021/12/19 11:48:05;;;;;;;5.55;2.20;;;;;;;8.21;44.54;100942.94;1916806;74;21053;-65
2021/12/19 11:50:32;;;;;;;7.75;1.95;;;;;;;8.10;44.71;100948.00;1916834;74;21488;-63
2021/12/19 11:53:06;;;;;;;2.75;1.55;;;;;;;8.02;44.52;100933.34;1917184;75;21022;-63
2021/12/19 11:55:44;;;;;;;8.05;3.52;;;;;;;8.16;44.79;100923.83;1916797;74;21105;-62
2021/12/19 11:58:23;;;;;;;4.12;1.50;;;;;;;8.45;44.21;100923.09;1881312;76;21601;-63
2021/12/19 12:01:03;;;;;;;3.90;1.85;;;;;;;8.46;44.35;100917.77;1915540;75;21591;-62
2021/12/19 12:03:44;;;;;;;5.05;0.90;;;;;;;9.30;43.25;100911.45;1916342;75;21519;-64
2021/12/19 12:06:21;;;;;;;2.77;1.07;;;;;;;10.21;41.52;100898.33;1917277;75;20994;-64
2021/12/19 12:09:14;;;;;;;2.70;1.32;;;;;;;10.56;40.98;100893.61;1917048;75;21484;-64
2021/12/19 12:12:04;;;;;;;2.62;1.22;;;;;;;10.88;40.39;100885.43;1916904;75;21011;-64
2021/12/19 12:14:39;;;;;;;3.25;1.37;;;;;;;11.07;40.05;100880.34;1917237;75;21069;-64
2021/12/19 12:17:12;;;;;;;2.27;0.75;;;;;;;10.85;40.08;100869.77;1917246;74;21116;-63
2021/12/19 12:19:42;;;;;;;2.35;0.88;;;;;;;10.29;40.91;100874.40;1918139;73;21019;-63
2021/12/19 12:25:16;;;;;;;7.22;1.80;;;;;;;8.54;44.24;100864.22;1956627;73;21086;-63
2021/12/19 12:28:03;;;;;;;3.05;1.42;;;;;;;8.11;45.08;100865.81;1957876;73;21020;-64
2021/12/19 12:30:33;;;;;;;5.28;1.62;;;;;;;7.71;46.19;100855.04;1957981;73;21032;-64
2021/12/19 12:33:05;;;;;;;3.08;1.52;;;;;;;7.41;47.22;100856.64;1890020;76;21216;-63
2021/12/19 12:35:37;;;;;;;1.32;1.00;;;;;;;7.14;48.04;100838.53;1924446;74;21095;-64
2021/12/19 12:38:07;;;;;;;5.35;2.05;;;;;;;6.94;48.54;100856.84;1905643;75;21473;-63
2021/12/19 12:40:56;;;;;;;2.33;1.02;;;;;;;6.81;48.98;100849.31;1905956;75;21039;-63
2021/12/19 12:43:27;;;;;;;1.50;1.17;;;;;;;6.78;49.12;100849.37;1905506;75;21012;-63
2021/12/19 12:46:01;;;;;;;4.75;1.90;;;;;;;6.76;49.50;100841.55;1905085;75;21071;-61
2021/12/19 12:48:35;;;;;;;2.83;1.25;;;;;;;6.74;49.73;100842.03;1905949;75;21109;-62
2021/12/19 12:51:07;;;;;;;11.57;1.42;;;;;;;6.71;49.78;100842.97;1905772;75;21172;-64
2021/12/19 12:53:39;;;;;;;1.55;1.02;;;;;;;6.68;50.06;100840.87;1907258;75;21024;-62
2021/12/19 12:56:14;;;;;;;1.90;0.93;;;;;;;6.66;50.25;100829.54;1907489;75;21123;-62
2021/12/19 12:58:46;;;;;;;1.60;0.70;;;;;;;6.65;50.65;100830.45;1907271;74;21064;-65
2021/12/19 13:01:37;;;;;;;0.68;0.62;;;;;;;6.61;50.93;100823.57;1907919;75;21576;-62